sensor_id;sensor_type;location;lat;lon;timestamp;temperature;humidity
62589;DHT22;58504;48.770;9.148;2023-04-24T00:01:14;22.40;51.50
62589;DHT22;58504;48.770;9.148;2023-04-24T00:03:42;22.40;51.60
62589;DHT22;58504;48.770;9.148;2023-04-24T00:06:09;22.40;51.60
62589;DHT22;58504;48.770;9.148;2023-04-24T00:08:36;22.40;51.70
62589;DHT22;58504;48.770;9.148;2023-04-24T00:11:04;22.30;51.70
62589;DHT22;58504;48.770;9.148;2023-04-24T00:13:31;22.30;51.70
62589;DHT22;58504;48.770;9.148;2023-04-24T00:15:57;22.30;51.80
62589;DHT22;58504;48.770;9.148;2023-04-24T00:18:24;22.30;51.90
62589;DHT22;58504;48.770;9.148;2023-04-24T00:20:51;22.20;51.90
62589;DHT22;58504;48.770;9.148;2023-04-24T00:23:19;22.20;52.00
62589;DHT22;58504;48.770;9.148;2023-04-24T00:25:45;22.10;52.00
62589;DHT22;58504;48.770;9.148;2023-04-24T00:28:13;22.10;52.00
62589;DHT22;58504;48.770;9.148;2023-04-24T00:30:40;22.10;52.10
62589;DHT22;58504;48.770;9.148;2023-04-24T00:33:07;22.10;52.10
62589;DHT22;58504;48.770;9.148;2023-04-24T00:35:34;22.10;52.20
62589;DHT22;58504;48.770;9.148;2023-04-24T00:38:01;22.10;52.20
62589;DHT22;58504;48.770;9.148;2023-04-24T00:40:28;22.00;52.10
62589;DHT22;58504;48.770;9.148;2023-04-24T00:42:55;22.00;52.20
62589;DHT22;58504;48.770;9.148;2023-04-24T00:45:24;22.00;52.20
62589;DHT22;58504;48.770;9.148;2023-04-24T00:47:52;22.00;52.30
62589;DHT22;58504;48.770;9.148;2023-04-24T00:50:21;22.00;52.30
62589;DHT22;58504;48.770;9.148;2023-04-24T00:52:48;22.00;52.40
62589;DHT22;58504;48.770;9.148;2023-04-24T00:55:14;21.90;52.30
62589;DHT22;58504;48.770;9.148;2023-04-24T00:57:41;21.90;52.40
62589;DHT22;58504;48.770;9.148;2023-04-24T01:00:09;21.90;52.50
62589;DHT22;58504;48.770;9.148;2023-04-24T01:02:39;21.90;52.50
62589;DHT22;58504;48.770;9.148;2023-04-24T01:05:09;21.90;52.50
62589;DHT22;58504;48.770;9.148;2023-04-24T01:07:38;21.80;52.40
62589;DHT22;58504;48.770;9.148;2023-04-24T01:10:06;21.80;52.50
62589;DHT22;58504;48.770;9.148;2023-04-24T01:12:33;21.80;52.50
62589;DHT22;58504;48.770;9.148;2023-04-24T01:15:00;21.80;52.50
62589;DHT22;58504;48.770;9.148;2023-04-24T01:17:29;21.80;52.60
62589;DHT22;58504;48.770;9.148;2023-04-24T01:19:58;21.80;52.60
62589;DHT22;58504;48.770;9.148;2023-04-24T01:22:26;21.80;52.60
62589;DHT22;58504;48.770;9.148;2023-04-24T01:24:53;21.70;52.60
62589;DHT22;58504;48.770;9.148;2023-04-24T01:27:20;21.70;53.10
62589;DHT22;58504;48.770;9.148;2023-04-24T01:29:47;21.70;52.60
62589;DHT22;58504;48.770;9.148;2023-04-24T01:32:15;21.70;52.60
62589;DHT22;58504;48.770;9.148;2023-04-24T01:34:42;21.70;52.60
62589;DHT22;58504;48.770;9.148;2023-04-24T01:37:10;21.70;52.60
62589;DHT22;58504;48.770;9.148;2023-04-24T01:39:38;21.70;52.60
62589;DHT22;58504;48.770;9.148;2023-04-24T01:42:05;21.70;52.70
62589;DHT22;58504;48.770;9.148;2023-04-24T01:44:33;21.60;52.60
62589;DHT22;58504;48.770;9.148;2023-04-24T01:47:00;21.60;52.60
62589;DHT22;58504;48.770;9.148;2023-04-24T01:49:27;21.60;52.60
62589;DHT22;58504;48.770;9.148;2023-04-24T01:51:54;21.60;52.60
62589;DHT22;58504;48.770;9.148;2023-04-24T01:54:21;21.60;52.60
62589;DHT22;58504;48.770;9.148;2023-04-24T01:56:49;21.60;52.60
62589;DHT22;58504;48.770;9.148;2023-04-24T01:59:17;21.60;52.70
62589;DHT22;58504;48.770;9.148;2023-04-24T02:01:44;21.60;52.70
62589;DHT22;58504;48.770;9.148;2023-04-24T02:04:10;21.60;52.70
62589;DHT22;58504;48.770;9.148;2023-04-24T02:06:37;21.60;52.70
62589;DHT22;58504;48.770;9.148;2023-04-24T02:09:04;21.60;52.70
62589;DHT22;58504;48.770;9.148;2023-04-24T02:11:31;21.60;52.70
62589;DHT22;58504;48.770;9.148;2023-04-24T02:13:59;21.50;52.60
62589;DHT22;58504;48.770;9.148;2023-04-24T02:16:25;21.50;52.60
62589;DHT22;58504;48.770;9.148;2023-04-24T02:18:52;21.50;52.70
62589;DHT22;58504;48.770;9.148;2023-04-24T02:21:19;21.50;52.70
62589;DHT22;58504;48.770;9.148;2023-04-24T02:23:46;21.50;52.70
62589;DHT22;58504;48.770;9.148;2023-04-24T02:26:13;21.50;52.70
62589;DHT22;58504;48.770;9.148;2023-04-24T02:28:40;21.50;52.70
62589;DHT22;58504;48.770;9.148;2023-04-24T02:31:08;21.50;52.70
62589;DHT22;58504;48.770;9.148;2023-04-24T02:33:35;21.50;52.80
62589;DHT22;58504;48.770;9.148;2023-04-24T02:36:02;21.40;52.70
62589;DHT22;58504;48.770;9.148;2023-04-24T02:38:29;21.40;52.70
62589;DHT22;58504;48.770;9.148;2023-04-24T02:40:55;21.40;52.70
62589;DHT22;58504;48.770;9.148;2023-04-24T02:43:22;21.40;52.80
62589;DHT22;58504;48.770;9.148;2023-04-24T02:45:49;21.40;52.80
62589;DHT22;58504;48.770;9.148;2023-04-24T02:48:17;21.40;52.70
62589;DHT22;58504;48.770;9.148;2023-04-24T02:50:46;21.40;52.80
62589;DHT22;58504;48.770;9.148;2023-04-24T02:53:13;21.40;52.80
62589;DHT22;58504;48.770;9.148;2023-04-24T02:55:39;21.40;52.80
62589;DHT22;58504;48.770;9.148;2023-04-24T02:58:06;21.40;52.80
62589;DHT22;58504;48.770;9.148;2023-04-24T03:00:33;21.40;52.80
62589;DHT22;58504;48.770;9.148;2023-04-24T03:03:00;21.30;52.70
62589;DHT22;58504;48.770;9.148;2023-04-24T03:05:29;21.30;52.80
62589;DHT22;58504;48.770;9.148;2023-04-24T03:07:57;21.30;52.80
62589;DHT22;58504;48.770;9.148;2023-04-24T03:10:23;21.30;52.70
62589;DHT22;58504;48.770;9.148;2023-04-24T03:12:50;21.30;52.70
62589;DHT22;58504;48.770;9.148;2023-04-24T03:15:17;21.30;52.80
62589;DHT22;58504;48.770;9.148;2023-04-24T03:17:44;21.30;52.80
62589;DHT22;58504;48.770;9.148;2023-04-24T03:20:11;21.30;52.80
62589;DHT22;58504;48.770;9.148;2023-04-24T03:22:39;21.30;52.90
62589;DHT22;58504;48.770;9.148;2023-04-24T03:25:06;21.30;52.90
62589;DHT22;58504;48.770;9.148;2023-04-24T03:27:34;21.30;52.90
62589;DHT22;58504;48.770;9.148;2023-04-24T03:30:01;21.30;52.80
62589;DHT22;58504;48.770;9.148;2023-04-24T03:32:28;21.20;52.80
62589;DHT22;58504;48.770;9.148;2023-04-24T03:34:55;21.20;52.80
62589;DHT22;58504;48.770;9.148;2023-04-24T03:37:21;21.20;52.80
62589;DHT22;58504;48.770;9.148;2023-04-24T03:39:49;21.20;52.80
62589;DHT22;58504;48.770;9.148;2023-04-24T03:42:16;21.20;52.80
62589;DHT22;58504;48.770;9.148;2023-04-24T03:44:43;21.20;52.80
62589;DHT22;58504;48.770;9.148;2023-04-24T03:47:10;21.20;52.80
62589;DHT22;58504;48.770;9.148;2023-04-24T03:49:36;21.20;52.80
62589;DHT22;58504;48.770;9.148;2023-04-24T03:52:03;21.20;52.80
62589;DHT22;58504;48.770;9.148;2023-04-24T03:54:30;21.20;52.80
62589;DHT22;58504;48.770;9.148;2023-04-24T03:56:58;21.20;52.80
62589;DHT22;58504;48.770;9.148;2023-04-24T03:59:25;21.20;52.80
62589;DHT22;58504;48.770;9.148;2023-04-24T04:01:52;21.20;52.70
62589;DHT22;58504;48.770;9.148;2023-04-24T04:04:18;21.20;52.70
62589;DHT22;58504;48.770;9.148;2023-04-24T04:06:45;21.20;52.80
62589;DHT22;58504;48.770;9.148;2023-04-24T04:09:13;21.20;52.80
62589;DHT22;58504;48.770;9.148;2023-04-24T04:11:39;21.20;52.80
62589;DHT22;58504;48.770;9.148;2023-04-24T04:14:07;21.20;52.80
62589;DHT22;58504;48.770;9.148;2023-04-24T04:16:34;21.10;52.70
62589;DHT22;58504;48.770;9.148;2023-04-24T04:19:02;21.10;52.80
62589;DHT22;58504;48.770;9.148;2023-04-24T04:21:29;21.10;52.80
62589;DHT22;58504;48.770;9.148;2023-04-24T04:23:56;21.10;52.90
62589;DHT22;58504;48.770;9.148;2023-04-24T04:26:23;21.10;52.90
62589;DHT22;58504;48.770;9.148;2023-04-24T04:28:51;21.10;52.90
62589;DHT22;58504;48.770;9.148;2023-04-24T04:31:19;21.10;52.90
62589;DHT22;58504;48.770;9.148;2023-04-24T04:33:46;21.10;52.90
62589;DHT22;58504;48.770;9.148;2023-04-24T04:36:13;21.10;52.90
62589;DHT22;58504;48.770;9.148;2023-04-24T04:38:40;21.10;52.90
62589;DHT22;58504;48.770;9.148;2023-04-24T04:41:08;21.20;53.00
62589;DHT22;58504;48.770;9.148;2023-04-24T04:43:35;21.30;52.60
62589;DHT22;58504;48.770;9.148;2023-04-24T04:46:02;21.50;52.30
62589;DHT22;58504;48.770;9.148;2023-04-24T04:48:31;21.60;51.90
62589;DHT22;58504;48.770;9.148;2023-04-24T04:50:57;21.80;51.70
62589;DHT22;58504;48.770;9.148;2023-04-24T04:53:24;22.00;51.50
62589;DHT22;58504;48.770;9.148;2023-04-24T04:55:51;22.20;51.20
62589;DHT22;58504;48.770;9.148;2023-04-24T04:58:18;22.40;51.10
62589;DHT22;58504;48.770;9.148;2023-04-24T05:00:45;22.50;50.80
62589;DHT22;58504;48.770;9.148;2023-04-24T05:03:12;22.60;50.50
62589;DHT22;58504;48.770;9.148;2023-04-24T05:05:40;22.80;50.40
62589;DHT22;58504;48.770;9.148;2023-04-24T05:08:07;22.90;50.20
62589;DHT22;58504;48.770;9.148;2023-04-24T05:10:33;23.00;50.00
62589;DHT22;58504;48.770;9.148;2023-04-24T05:13:02;23.10;49.80
62589;DHT22;58504;48.770;9.148;2023-04-24T05:15:29;23.20;49.70
62589;DHT22;58504;48.770;9.148;2023-04-24T05:17:55;23.30;49.60
62589;DHT22;58504;48.770;9.148;2023-04-24T05:20:22;23.40;49.40
62589;DHT22;58504;48.770;9.148;2023-04-24T05:22:50;23.50;49.30
62589;DHT22;58504;48.770;9.148;2023-04-24T05:25:17;23.50;49.20
62589;DHT22;58504;48.770;9.148;2023-04-24T05:27:45;23.60;49.00
62589;DHT22;58504;48.770;9.148;2023-04-24T05:30:12;23.70;49.00
62589;DHT22;58504;48.770;9.148;2023-04-24T05:32:39;23.80;48.90
62589;DHT22;58504;48.770;9.148;2023-04-24T05:35:06;23.80;48.70
62589;DHT22;58504;48.770;9.148;2023-04-24T05:37:33;23.90;48.60
62589;DHT22;58504;48.770;9.148;2023-04-24T05:40:01;24.00;48.60
62589;DHT22;58504;48.770;9.148;2023-04-24T05:42:30;24.00;48.50
62589;DHT22;58504;48.770;9.148;2023-04-24T05:44:57;24.10;48.50
62589;DHT22;58504;48.770;9.148;2023-04-24T05:47:23;24.20;48.40
62589;DHT22;58504;48.770;9.148;2023-04-24T05:49:51;24.20;48.30
62589;DHT22;58504;48.770;9.148;2023-04-24T05:52:18;24.30;48.20
62589;DHT22;58504;48.770;9.148;2023-04-24T05:54:45;24.30;48.10
62589;DHT22;58504;48.770;9.148;2023-04-24T05:57:13;24.40;48.00
62589;DHT22;58504;48.770;9.148;2023-04-24T05:59:40;24.40;48.00
62589;DHT22;58504;48.770;9.148;2023-04-24T06:02:07;24.50;48.00
62589;DHT22;58504;48.770;9.148;2023-04-24T06:04:34;24.50;48.00
62589;DHT22;58504;48.770;9.148;2023-04-24T06:07:01;24.50;47.80
62589;DHT22;58504;48.770;9.148;2023-04-24T06:09:28;24.60;47.80
62589;DHT22;58504;48.770;9.148;2023-04-24T06:11:55;24.60;47.80
62589;DHT22;58504;48.770;9.148;2023-04-24T06:14:23;24.70;47.70
62589;DHT22;58504;48.770;9.148;2023-04-24T06:16:50;24.70;47.60
62589;DHT22;58504;48.770;9.148;2023-04-24T06:19:16;24.70;47.50
62589;DHT22;58504;48.770;9.148;2023-04-24T06:21:43;24.70;47.50
62589;DHT22;58504;48.770;9.148;2023-04-24T06:24:10;24.70;47.50
62589;DHT22;58504;48.770;9.148;2023-04-24T06:26:37;24.80;47.40
62589;DHT22;58504;48.770;9.148;2023-04-24T06:29:04;24.80;47.30
62589;DHT22;58504;48.770;9.148;2023-04-24T06:31:32;24.80;47.20
62589;DHT22;58504;48.770;9.148;2023-04-24T06:34:02;24.80;44.10
62589;DHT22;58504;48.770;9.148;2023-04-24T06:36:29;24.70;41.80
62589;DHT22;58504;48.770;9.148;2023-04-24T06:38:56;23.30;40.70
62589;DHT22;58504;48.770;9.148;2023-04-24T06:41:23;20.70;45.50
62589;DHT22;58504;48.770;9.148;2023-04-24T06:43:50;20.30;59.80
62589;DHT22;58504;48.770;9.148;2023-04-24T06:46:17;20.80;55.70
62589;DHT22;58504;48.770;9.148;2023-04-24T06:48:45;21.30;50.70
62589;DHT22;58504;48.770;9.148;2023-04-24T06:51:12;21.70;50.90
62589;DHT22;58504;48.770;9.148;2023-04-24T06:53:38;22.20;50.80
62589;DHT22;58504;48.770;9.148;2023-04-24T06:56:05;22.60;50.40
62589;DHT22;58504;48.770;9.148;2023-04-24T06:58:32;23.00;50.40
62589;DHT22;58504;48.770;9.148;2023-04-24T07:00:59;23.40;49.30
62589;DHT22;58504;48.770;9.148;2023-04-24T07:03:25;23.70;48.70
62589;DHT22;58504;48.770;9.148;2023-04-24T07:05:54;24.00;48.20
62589;DHT22;58504;48.770;9.148;2023-04-24T07:08:21;24.30;48.00
62589;DHT22;58504;48.770;9.148;2023-04-24T07:10:49;24.50;47.20
62589;DHT22;58504;48.770;9.148;2023-04-24T07:13:16;24.40;47.10
62589;DHT22;58504;48.770;9.148;2023-04-24T07:15:43;24.30;47.60
62589;DHT22;58504;48.770;9.148;2023-04-24T07:18:10;24.20;47.50
62589;DHT22;58504;48.770;9.148;2023-04-24T07:20:36;24.10;47.80
62589;DHT22;58504;48.770;9.148;2023-04-24T07:23:04;24.00;47.90
62589;DHT22;58504;48.770;9.148;2023-04-24T07:25:31;23.90;48.10
62589;DHT22;58504;48.770;9.148;2023-04-24T07:27:58;23.80;48.40
62589;DHT22;58504;48.770;9.148;2023-04-24T07:30:25;23.80;48.50
62589;DHT22;58504;48.770;9.148;2023-04-24T07:32:54;23.80;48.80
62589;DHT22;58504;48.770;9.148;2023-04-24T07:35:21;23.90;48.80
62589;DHT22;58504;48.770;9.148;2023-04-24T07:37:48;24.20;48.80
62589;DHT22;58504;48.770;9.148;2023-04-24T07:40:16;24.60;48.30
62589;DHT22;58504;48.770;9.148;2023-04-24T07:42:43;24.90;47.60
62589;DHT22;58504;48.770;9.148;2023-04-24T07:45:10;25.50;46.00
62589;DHT22;58504;48.770;9.148;2023-04-24T07:47:37;25.40;45.70
62589;DHT22;58504;48.770;9.148;2023-04-24T07:50:05;25.60;45.60
62589;DHT22;58504;48.770;9.148;2023-04-24T07:52:32;25.70;45.20
62589;DHT22;58504;48.770;9.148;2023-04-24T07:54:59;25.60;45.60
62589;DHT22;58504;48.770;9.148;2023-04-24T07:57:29;25.30;45.90
62589;DHT22;58504;48.770;9.148;2023-04-24T07:59:55;25.10;46.30
62589;DHT22;58504;48.770;9.148;2023-04-24T08:02:22;25.10;46.50
62589;DHT22;58504;48.770;9.148;2023-04-24T08:04:51;25.00;46.60
62589;DHT22;58504;48.770;9.148;2023-04-24T08:07:19;24.90;46.40
62589;DHT22;58504;48.770;9.148;2023-04-24T08:09:46;24.90;46.30
62589;DHT22;58504;48.770;9.148;2023-04-24T08:12:12;24.70;46.80
62589;DHT22;58504;48.770;9.148;2023-04-24T08:14:41;24.70;47.00
62589;DHT22;58504;48.770;9.148;2023-04-24T08:17:07;24.70;47.30
62589;DHT22;58504;48.770;9.148;2023-04-24T08:19:34;24.90;47.40
62589;DHT22;58504;48.770;9.148;2023-04-24T08:22:01;25.10;47.10
62589;DHT22;58504;48.770;9.148;2023-04-24T08:24:29;25.50;46.00
62589;DHT22;58504;48.770;9.148;2023-04-24T08:26:56;26.30;45.30
62589;DHT22;58504;48.770;9.148;2023-04-24T08:29:23;26.10;44.80
62589;DHT22;58504;48.770;9.148;2023-04-24T08:31:52;26.70;44.40
62589;DHT22;58504;48.770;9.148;2023-04-24T08:34:19;27.00;43.50
62589;DHT22;58504;48.770;9.148;2023-04-24T08:36:46;26.50;43.70
62589;DHT22;58504;48.770;9.148;2023-04-24T08:39:13;26.00;44.50
62589;DHT22;58504;48.770;9.148;2023-04-24T08:41:42;25.70;45.30
62589;DHT22;58504;48.770;9.148;2023-04-24T08:44:11;25.30;46.00
62589;DHT22;58504;48.770;9.148;2023-04-24T08:46:39;25.00;46.70
62589;DHT22;58504;48.770;9.148;2023-04-24T08:49:08;24.70;47.30
62589;DHT22;58504;48.770;9.148;2023-04-24T08:51:36;24.50;47.90
62589;DHT22;58504;48.770;9.148;2023-04-24T08:54:04;24.30;47.90
62589;DHT22;58504;48.770;9.148;2023-04-24T08:56:33;24.40;48.40
62589;DHT22;58504;48.770;9.148;2023-04-24T08:59:03;25.20;47.70
62589;DHT22;58504;48.770;9.148;2023-04-24T09:01:32;25.40;46.60
62589;DHT22;58504;48.770;9.148;2023-04-24T09:04:00;25.30;46.70
62589;DHT22;58504;48.770;9.148;2023-04-24T09:06:30;25.10;47.10
62589;DHT22;58504;48.770;9.148;2023-04-24T09:09:00;24.90;47.40
62589;DHT22;58504;48.770;9.148;2023-04-24T09:11:27;24.70;47.70
62589;DHT22;58504;48.770;9.148;2023-04-24T09:13:54;24.40;48.00
62589;DHT22;58504;48.770;9.148;2023-04-24T09:16:21;24.30;48.60
62589;DHT22;58504;48.770;9.148;2023-04-24T09:18:49;24.00;48.80
62589;DHT22;58504;48.770;9.148;2023-04-24T09:21:16;23.90;49.20
62589;DHT22;58504;48.770;9.148;2023-04-24T09:23:44;23.80;49.30
62589;DHT22;58504;48.770;9.148;2023-04-24T09:26:11;23.70;49.30
62589;DHT22;58504;48.770;9.148;2023-04-24T09:28:40;23.60;49.50
62589;DHT22;58504;48.770;9.148;2023-04-24T09:31:09;23.60;49.70
62589;DHT22;58504;48.770;9.148;2023-04-24T09:33:36;23.50;49.80
62589;DHT22;58504;48.770;9.148;2023-04-24T09:36:03;23.40;50.10
62589;DHT22;58504;48.770;9.148;2023-04-24T09:38:35;23.40;50.30
62589;DHT22;58504;48.770;9.148;2023-04-24T09:41:06;23.40;50.30
62589;DHT22;58504;48.770;9.148;2023-04-24T09:43:33;23.30;50.30
62589;DHT22;58504;48.770;9.148;2023-04-24T09:46:05;23.40;50.40
62589;DHT22;58504;48.770;9.148;2023-04-24T09:48:33;23.40;50.20
62589;DHT22;58504;48.770;9.148;2023-04-24T09:51:01;23.50;50.30
62589;DHT22;58504;48.770;9.148;2023-04-24T09:53:29;23.40;50.40
62589;DHT22;58504;48.770;9.148;2023-04-24T09:55:56;23.40;50.40
62589;DHT22;58504;48.770;9.148;2023-04-24T09:58:29;23.40;50.40
62589;DHT22;58504;48.770;9.148;2023-04-24T10:00:56;23.30;50.20
62589;DHT22;58504;48.770;9.148;2023-04-24T10:03:24;23.30;50.30
62589;DHT22;58504;48.770;9.148;2023-04-24T10:05:52;23.30;50.30
62589;DHT22;58504;48.770;9.148;2023-04-24T10:08:20;23.30;50.30
62589;DHT22;58504;48.770;9.148;2023-04-24T10:10:47;23.30;50.60
62589;DHT22;58504;48.770;9.148;2023-04-24T10:13:14;23.40;50.80
62589;DHT22;58504;48.770;9.148;2023-04-24T10:15:43;23.60;50.50
62589;DHT22;58504;48.770;9.148;2023-04-24T10:18:11;24.00;50.00
62589;DHT22;58504;48.770;9.148;2023-04-24T10:20:40;24.10;49.50
62589;DHT22;58504;48.770;9.148;2023-04-24T10:23:07;24.30;48.80
62589;DHT22;58504;48.770;9.148;2023-04-24T10:25:35;24.30;48.20
62589;DHT22;58504;48.770;9.148;2023-04-24T10:28:03;24.30;47.80
62589;DHT22;58504;48.770;9.148;2023-04-24T10:30:31;24.40;48.20
62589;DHT22;58504;48.770;9.148;2023-04-24T10:33:02;24.30;48.20
62589;DHT22;58504;48.770;9.148;2023-04-24T10:35:31;24.30;47.60
62589;DHT22;58504;48.770;9.148;2023-04-24T10:38:02;24.20;48.60
62589;DHT22;58504;48.770;9.148;2023-04-24T10:40:31;24.10;49.20
62589;DHT22;58504;48.770;9.148;2023-04-24T10:42:58;24.00;49.50
62589;DHT22;58504;48.770;9.148;2023-04-24T10:45:26;23.80;48.90
62589;DHT22;58504;48.770;9.148;2023-04-24T10:47:56;23.70;49.50
62589;DHT22;58504;48.770;9.148;2023-04-24T10:50:25;23.60;49.90
62589;DHT22;58504;48.770;9.148;2023-04-24T10:52:52;23.50;50.00
62589;DHT22;58504;48.770;9.148;2023-04-24T10:55:41;23.40;49.80
62589;DHT22;58504;48.770;9.148;2023-04-24T10:58:08;23.30;49.60
62589;DHT22;58504;48.770;9.148;2023-04-24T11:00:36;23.30;50.10
62589;DHT22;58504;48.770;9.148;2023-04-24T11:03:05;23.20;50.50
62589;DHT22;58504;48.770;9.148;2023-04-24T11:05:53;23.10;50.70
62589;DHT22;58504;48.770;9.148;2023-04-24T11:08:26;23.10;50.60
62589;DHT22;58504;48.770;9.148;2023-04-24T11:11:01;23.00;50.70
62589;DHT22;58504;48.770;9.148;2023-04-24T11:16:33;22.90;51.10
62589;DHT22;58504;48.770;9.148;2023-04-24T11:19:02;22.90;51.10
62589;DHT22;58504;48.770;9.148;2023-04-24T11:21:31;22.80;51.10
62589;DHT22;58504;48.770;9.148;2023-04-24T11:23:58;22.80;51.20
62589;DHT22;58504;48.770;9.148;2023-04-24T11:26:25;22.80;50.60
62589;DHT22;58504;48.770;9.148;2023-04-24T11:29:05;22.80;50.80
62589;DHT22;58504;48.770;9.148;2023-04-24T11:31:40;23.00;51.00
62589;DHT22;58504;48.770;9.148;2023-04-24T11:34:08;23.00;50.10
62589;DHT22;58504;48.770;9.148;2023-04-24T11:36:36;23.10;50.20
62589;DHT22;58504;48.770;9.148;2023-04-24T11:39:03;23.10;49.70
62589;DHT22;58504;48.770;9.148;2023-04-24T11:41:30;23.10;49.80
62589;DHT22;58504;48.770;9.148;2023-04-24T11:43:58;23.10;50.30
62589;DHT22;58504;48.770;9.148;2023-04-24T11:46:28;23.10;50.40
62589;DHT22;58504;48.770;9.148;2023-04-24T11:48:56;23.10;50.20
62589;DHT22;58504;48.770;9.148;2023-04-24T11:51:24;23.00;50.10
62589;DHT22;58504;48.770;9.148;2023-04-24T11:53:52;23.00;50.30
62589;DHT22;58504;48.770;9.148;2023-04-24T11:56:19;23.00;50.60
62589;DHT22;58504;48.770;9.148;2023-04-24T11:58:47;23.00;50.70
62589;DHT22;58504;48.770;9.148;2023-04-24T12:01:14;23.00;50.70
62589;DHT22;58504;48.770;9.148;2023-04-24T12:03:41;23.10;50.70
62589;DHT22;58504;48.770;9.148;2023-04-24T12:06:13;23.10;50.60
62589;DHT22;58504;48.770;9.148;2023-04-24T12:08:40;23.20;50.50
62589;DHT22;58504;48.770;9.148;2023-04-24T12:11:07;23.20;50.70
62589;DHT22;58504;48.770;9.148;2023-04-24T12:13:34;23.30;50.90
62589;DHT22;58504;48.770;9.148;2023-04-24T12:16:03;23.20;51.00
62589;DHT22;58504;48.770;9.148;2023-04-24T12:18:30;23.20;50.90
62589;DHT22;58504;48.770;9.148;2023-04-24T12:21:17;23.20;51.10
62589;DHT22;58504;48.770;9.148;2023-04-24T12:23:44;23.10;51.00
62589;DHT22;58504;48.770;9.148;2023-04-24T12:26:11;23.10;50.30
62589;DHT22;58504;48.770;9.148;2023-04-24T12:28:39;23.00;49.70
62589;DHT22;58504;48.770;9.148;2023-04-24T12:31:06;23.00;50.40
62589;DHT22;58504;48.770;9.148;2023-04-24T12:33:34;23.00;49.60
62589;DHT22;58504;48.770;9.148;2023-04-24T12:36:02;23.00;50.30
62589;DHT22;58504;48.770;9.148;2023-04-24T12:38:30;23.00;50.80
62589;DHT22;58504;48.770;9.148;2023-04-24T12:41:03;23.00;51.20
62589;DHT22;58504;48.770;9.148;2023-04-24T12:43:30;23.00;51.30
62589;DHT22;58504;48.770;9.148;2023-04-24T12:45:57;23.00;50.70
62589;DHT22;58504;48.770;9.148;2023-04-24T12:48:24;23.00;51.10
62589;DHT22;58504;48.770;9.148;2023-04-24T12:50:51;23.00;51.00
62589;DHT22;58504;48.770;9.148;2023-04-24T12:53:18;23.00;50.80
62589;DHT22;58504;48.770;9.148;2023-04-24T12:55:46;23.00;50.70
62589;DHT22;58504;48.770;9.148;2023-04-24T12:58:18;22.90;51.00
62589;DHT22;58504;48.770;9.148;2023-04-24T13:00:45;22.90;51.20
62589;DHT22;58504;48.770;9.148;2023-04-24T13:03:12;22.80;51.30
62589;DHT22;58504;48.770;9.148;2023-04-24T13:05:39;22.80;51.50
62589;DHT22;58504;48.770;9.148;2023-04-24T13:08:06;22.70;50.90
62589;DHT22;58504;48.770;9.148;2023-04-24T13:10:33;22.60;50.90
62589;DHT22;58504;48.770;9.148;2023-04-24T13:13:01;22.70;50.80
62589;DHT22;58504;48.770;9.148;2023-04-24T13:15:29;22.60;50.90
62589;DHT22;58504;48.770;9.148;2023-04-24T13:17:56;22.70;51.60
62589;DHT22;58504;48.770;9.148;2023-04-24T13:20:22;22.80;51.60
62589;DHT22;58504;48.770;9.148;2023-04-24T13:22:49;22.90;51.40
62589;DHT22;58504;48.770;9.148;2023-04-24T13:25:16;23.00;51.40
62589;DHT22;58504;48.770;9.148;2023-04-24T13:27:43;23.20;51.40
62589;DHT22;58504;48.770;9.148;2023-04-24T13:30:12;23.40;50.80
62589;DHT22;58504;48.770;9.148;2023-04-24T13:32:39;23.50;50.60
62589;DHT22;58504;48.770;9.148;2023-04-24T13:35:07;23.60;50.50
62589;DHT22;58504;48.770;9.148;2023-04-24T13:37:33;23.60;50.40
62589;DHT22;58504;48.770;9.148;2023-04-24T13:40:00;23.60;50.40
62589;DHT22;58504;48.770;9.148;2023-04-24T13:42:27;23.60;50.20
62589;DHT22;58504;48.770;9.148;2023-04-24T13:44:54;23.60;50.20
62589;DHT22;58504;48.770;9.148;2023-04-24T13:47:22;23.60;50.30
62589;DHT22;58504;48.770;9.148;2023-04-24T13:49:49;23.50;50.20
62589;DHT22;58504;48.770;9.148;2023-04-24T13:52:15;23.50;49.80
62589;DHT22;58504;48.770;9.148;2023-04-24T13:54:42;23.50;49.70
62589;DHT22;58504;48.770;9.148;2023-04-24T13:57:09;23.50;49.70
62589;DHT22;58504;48.770;9.148;2023-04-24T13:59:36;23.50;49.70
62589;DHT22;58504;48.770;9.148;2023-04-24T14:02:02;23.50;49.40
62589;DHT22;58504;48.770;9.148;2023-04-24T14:04:30;23.50;49.40
62589;DHT22;58504;48.770;9.148;2023-04-24T14:06:57;23.50;49.70
62589;DHT22;58504;48.770;9.148;2023-04-24T14:09:24;23.50;49.90
62589;DHT22;58504;48.770;9.148;2023-04-24T14:11:51;23.50;49.70
62589;DHT22;58504;48.770;9.148;2023-04-24T14:14:18;23.50;50.10
62589;DHT22;58504;48.770;9.148;2023-04-24T14:16:45;23.50;50.00
62589;DHT22;58504;48.770;9.148;2023-04-24T14:19:11;23.50;50.10
62589;DHT22;58504;48.770;9.148;2023-04-24T14:21:39;23.50;50.10
62589;DHT22;58504;48.770;9.148;2023-04-24T14:24:06;23.40;50.20
62589;DHT22;58504;48.770;9.148;2023-04-24T14:26:33;23.40;50.10
62589;DHT22;58504;48.770;9.148;2023-04-24T14:29:00;23.40;50.20
62589;DHT22;58504;48.770;9.148;2023-04-24T14:31:27;23.40;50.00
62589;DHT22;58504;48.770;9.148;2023-04-24T14:33:54;23.40;50.10
62589;DHT22;58504;48.770;9.148;2023-04-24T14:36:20;23.40;49.90
62589;DHT22;58504;48.770;9.148;2023-04-24T14:38:49;23.40;49.50
62589;DHT22;58504;48.770;9.148;2023-04-24T14:41:15;23.30;49.50
62589;DHT22;58504;48.770;9.148;2023-04-24T14:43:42;23.30;49.60
62589;DHT22;58504;48.770;9.148;2023-04-24T14:46:09;23.20;49.70
62589;DHT22;58504;48.770;9.148;2023-04-24T14:48:36;23.10;50.00
62589;DHT22;58504;48.770;9.148;2023-04-24T14:51:02;23.10;50.30
62589;DHT22;58504;48.770;9.148;2023-04-24T14:53:29;23.10;50.40
62589;DHT22;58504;48.770;9.148;2023-04-24T14:55:57;23.10;50.40
62589;DHT22;58504;48.770;9.148;2023-04-24T14:58:24;23.10;50.80
62589;DHT22;58504;48.770;9.148;2023-04-24T15:00:51;23.10;50.40
62589;DHT22;58504;48.770;9.148;2023-04-24T15:03:19;23.10;50.40
62589;DHT22;58504;48.770;9.148;2023-04-24T15:05:47;23.10;49.80
62589;DHT22;58504;48.770;9.148;2023-04-24T15:08:13;23.10;49.80
62589;DHT22;58504;48.770;9.148;2023-04-24T15:10:40;23.00;50.10
62589;DHT22;58504;48.770;9.148;2023-04-24T15:13:09;23.00;50.30
62589;DHT22;58504;48.770;9.148;2023-04-24T15:15:35;23.00;50.60
62589;DHT22;58504;48.770;9.148;2023-04-24T15:18:02;23.00;50.60
62589;DHT22;58504;48.770;9.148;2023-04-24T15:20:29;23.00;50.60
62589;DHT22;58504;48.770;9.148;2023-04-24T15:22:56;22.90;50.50
62589;DHT22;58504;48.770;9.148;2023-04-24T15:25:24;22.90;50.70
62589;DHT22;58504;48.770;9.148;2023-04-24T15:27:51;20.60;39.40
62589;DHT22;58504;48.770;9.148;2023-04-24T15:30:19;17.60;45.20
62589;DHT22;58504;48.770;9.148;2023-04-24T15:32:46;18.10;53.90
62589;DHT22;58504;48.770;9.148;2023-04-24T15:35:13;18.50;56.70